Time;durP1;ratioP1;P1;durP2;ratioP2;P2;SDS_P1;SDS_P2;PMS_P1;PMS_P2;Temp;Humidity;BMP_temperature;BMP_pressure;BME280_temperature;BME280_humidity;BME280_pressure;Samples;Min_cycle;Max_cycle;Signal;HPM_P1;HPM_P2
2022/06/04 00:01:46;;;;;;;;;31.33;28.67;;;;;18.55;77.57;100867.41;5077043;28;45498;-68
2022/06/04 00:04:14;;;;;;;;;26.67;26.67;;;;;18.53;76.81;100865.81;5077616;27;45408;-70
2022/06/04 00:06:41;;;;;;;;;33.67;29.67;;;;;18.53;76.76;100872.06;5079259;27;45317;-68
2022/06/04 00:09:08;;;;;;;;;35.00;32.00;;;;;18.49;77.20;100865.25;5077705;27;45438;-70
2022/06/04 00:15:29;;;;;;;;;30.00;28.67;;;;;18.52;76.69;100864.97;5069425;27;45354;-67
2022/06/04 00:17:24;;;;;;;;;32.00;32.00;;;;;18.49;77.51;100858.97;5078351;27;45504;-70
2022/06/04 00:19:50;;;;;;;;;33.33;32.00;;;;;18.43;77.08;100871.13;5076877;27;45954;-69
2022/06/04 00:22:17;;;;;;;;;30.33;27.33;;;;;18.42;77.03;100860.50;5075784;27;45387;-71
2022/06/04 00:24:44;;;;;;;;;28.00;28.00;;;;;18.43;77.67;100870.28;5076815;27;45425;-68
2022/06/04 00:27:16;;;;;;;;;31.67;29.67;;;;;18.34;77.42;100855.75;5078834;27;45533;-69
2022/06/04 00:29:41;;;;;;;;;32.00;31.00;;;;;18.39;77.25;100868.84;5076062;27;48690;-69
2022/06/04 00:32:07;;;;;;;;;34.67;32.00;;;;;18.38;76.93;100861.75;5092780;27;45349;-70
2022/06/04 00:34:32;;;;;;;;;30.33;29.00;;;;;18.36;77.37;100861.00;5074619;27;45515;-71
2022/06/04 00:36:59;;;;;;;;;36.67;32.67;;;;;18.33;77.66;100870.19;5078152;27;45358;-70
2022/06/04 00:39:24;;;;;;;;;34.67;32.33;;;;;18.34;77.43;100879.13;5092469;27;45674;-69
2022/06/04 00:42:07;;;;;;;;;47.67;35.33;;;;;18.30;77.12;100872.28;5077750;27;45364;-69
2022/06/04 00:44:32;;;;;;;;;43.33;37.00;;;;;18.32;76.84;100868.47;5076985;27;45419;-69
2022/06/04 00:47:11;;;;;;;;;46.33;37.33;;;;;18.28;77.46;100859.81;5075550;27;45513;-71
2022/06/04 00:49:36;;;;;;;;;42.00;37.33;;;;;18.25;77.12;100856.53;5075791;27;46130;-71
2022/06/04 00:52:05;;;;;;;;;47.33;39.67;;;;;18.23;77.25;100848.59;5073086;27;45266;-69
2022/06/04 00:54:31;;;;;;;;;51.00;42.00;;;;;18.21;77.00;100833.53;5076463;27;45184;-69
2022/06/04 00:57:35;;;;;;;;;51.33;41.67;;;;;18.24;76.75;100831.44;5077790;27;45468;-71
2022/06/04 01:00:13;;;;;;;;;45.00;38.33;;;;;18.23;77.13;100835.13;5064418;28;45453;-71
2022/06/04 01:03:02;;;;;;;;;45.00;38.00;;;;;18.19;77.02;100830.97;5076234;27;45430;-71
2022/06/04 01:05:40;;;;;;;;;43.33;34.33;;;;;18.14;77.92;100838.59;5073985;27;45237;-69
2022/06/04 01:08:30;;;;;;;;;37.33;33.00;;;;;18.11;77.54;100836.16;5077804;27;45920;-69
2022/06/04 01:11:16;;;;;;;;;39.33;35.00;;;;;18.14;76.86;100835.88;5075490;27;46146;-69
2022/06/04 01:14:20;;;;;;;;;42.67;34.33;;;;;18.18;76.46;100823.03;5073521;27;45479;-68
2022/06/04 01:16:58;;;;;;;;;37.67;32.00;;;;;18.14;77.08;100816.19;5074748;27;45445;-70
2022/06/04 01:19:42;;;;;;;;;28.67;28.67;;;;;18.12;77.13;100823.56;5076410;27;45234;-72
2022/06/04 01:22:19;;;;;;;;;29.00;28.00;;;;;18.08;77.30;100814.84;5071489;27;45499;-69
2022/06/04 01:25:03;;;;;;;;;33.00;30.00;;;;;18.12;77.09;100827.09;5076027;28;45212;-69
2022/06/04 01:27:40;;;;;;;;;30.67;30.67;;;;;18.08;77.58;100817.53;5070981;27;45199;-70
2022/06/04 01:30:24;;;;;;;;;25.67;25.00;;;;;18.04;77.20;100810.72;5075746;27;45221;-69
2022/06/04 01:32:56;;;;;;;;;29.00;29.00;;;;;18.06;76.83;100797.13;5074967;27;45440;-69
2022/06/04 01:35:28;;;;;;;;;32.33;30.00;;;;;18.09;77.08;100797.72;5075988;27;45410;-67
2022/06/04 01:38:17;;;;;;;;;33.33;28.67;;;;;18.09;76.92;100791.50;5072914;27;45403;-68
2022/06/04 01:41:08;;;;;;;;;29.00;29.00;;;;;18.09;77.17;100797.72;5077336;28;45476;-69
2022/06/04 01:43:48;;;;;;;;;34.00;28.33;;;;;18.10;76.53;100799.47;5070475;28;45376;-69
2022/06/04 01:46:22;;;;;;;;;31.00;29.33;;;;;18.09;76.93;100807.63;5059012;27;45262;-69
2022/06/04 01:48:53;;;;;;;;;32.33;29.00;;;;;18.10;76.80;100815.59;5076851;27;45326;-69
2022/06/04 01:51:25;;;;;;;;;29.67;27.00;;;;;18.08;77.29;100804.09;5074280;27;45431;-68
2022/06/04 01:53:58;;;;;;;;;29.33;27.00;;;;;18.06;77.23;100794.44;5075199;27;45861;-68
2022/06/04 01:56:30;;;;;;;;;33.33;27.33;;;;;18.05;77.41;100787.34;5073571;27;45249;-68
2022/06/04 01:59:09;;;;;;;;;30.67;29.00;;;;;18.03;77.21;100784.81;5075302;28;45429;-69
2022/06/04 02:01:37;;;;;;;;;34.00;28.67;;;;;18.02;77.25;100783.09;5074540;27;45285;-68
2022/06/04 02:04:07;;;;;;;;;30.67;26.67;;;;;18.02;77.51;100801.94;5076403;27;46308;-69
2022/06/04 02:06:41;;;;;;;;;33.00;31.00;;;;;18.04;77.62;100804.50;5074391;27;45445;-68
2022/06/04 02:09:15;;;;;;;;;29.33;26.67;;;;;18.04;77.18;100805.34;5075036;27;45362;-69
2022/06/04 02:11:48;;;;;;;;;27.67;27.67;;;;;18.09;76.63;100795.03;5075523;27;45330;-69
2022/06/04 02:14:14;;;;;;;;;28.67;28.67;;;;;18.11;77.05;100790.41;5074283;27;45529;-68
2022/06/04 02:16:46;;;;;;;;;34.67;30.67;;;;;18.07;76.59;100791.63;5073804;27;45362;-69
2022/06/04 02:19:11;;;;;;;;;34.67;27.67;;;;;18.06;77.23;100798.00;5076505;27;45315;-69
2022/06/04 02:21:37;;;;;;;;;30.67;30.67;;;;;18.07;76.93;100802.38;5074013;28;45364;-70
2022/06/04 02:24:04;;;;;;;;;29.33;27.67;;;;;18.06;76.48;100800.69;5076188;27;45341;-68
2022/06/04 02:26:30;;;;;;;;;30.33;29.67;;;;;18.08;76.31;100808.63;5073666;28;45413;-69
2022/06/04 02:28:58;;;;;;;;;33.33;31.00;;;;;18.11;76.07;100806.56;5072654;27;45393;-69
2022/06/04 02:31:23;;;;;;;;;25.67;25.67;;;;;18.13;76.06;100815.34;5073695;27;45386;-68
2022/06/04 02:34:11;;;;;;;;;29.33;27.67;;;;;18.13;76.17;100799.19;5073699;28;48134;-69
2022/06/04 02:36:51;;;;;;;;;30.00;28.00;;;;;18.11;76.37;100785.00;5074861;27;45484;-71
2022/06/04 02:39:37;;;;;;;;;25.67;24.00;;;;;18.09;76.30;100775.34;5076257;27;45226;-69
2022/06/04 02:42:21;;;;;;;;;27.67;25.67;;;;;18.11;76.14;100774.25;5073172;27;45528;-69
2022/06/04 02:44:52;;;;;;;;;29.67;26.67;;;;;18.10;76.83;100779.72;5071873;27;48185;-68
2022/06/04 02:47:29;;;;;;;;;28.00;27.67;;;;;18.11;75.85;100785.00;5071854;27;45384;-69
2022/06/04 02:50:02;;;;;;;;;28.67;28.67;;;;;18.12;76.19;100791.25;5075093;27;45458;-69
2022/06/04 02:52:30;;;;;;;;;27.33;26.00;;;;;18.09;76.10;100786.09;5075178;27;45364;-67
2022/06/04 02:55:14;;;;;;;;;26.67;23.33;;;;;18.12;76.12;100784.03;5074517;27;46264;-69
2022/06/04 02:57:45;;;;;;;;;27.00;24.67;;;;;18.10;76.32;100777.94;5074498;27;45275;-70
2022/06/04 03:00:13;;;;;;;;;31.67;26.33;;;;;18.14;76.12;100781.22;5069930;27;45535;-68
2022/06/04 03:02:39;;;;;;;;;29.00;27.67;;;;;18.16;75.94;100782.78;5072100;27;45670;-70
2022/06/04 03:05:14;;;;;;;;;24.67;24.00;;;;;18.18;75.88;100764.66;5082303;27;45371;-69
2022/06/04 03:07:43;;;;;;;;;29.00;28.00;;;;;18.11;75.89;100758.09;5074393;27;45452;-69
2022/06/04 03:10:16;;;;;;;;;27.00;25.33;;;;;18.13;75.82;100761.50;5073573;27;45642;-70
2022/06/04 03:12:41;;;;;;;;;30.00;29.33;;;;;18.06;76.19;100741.47;5075210;27;45384;-69
2022/06/04 03:15:09;;;;;;;;;25.00;23.67;;;;;18.15;75.98;100754.16;5078024;27;46257;-70
2022/06/04 03:17:34;;;;;;;;;28.67;28.00;;;;;18.04;76.20;100735.38;5070855;27;45727;-69
2022/06/04 03:19:59;;;;;;;;;31.50;27.50;;;;;18.09;76.63;100749.28;5073044;27;45800;-68
2022/06/04 03:22:25;;;;;;;;;30.00;27.00;;;;;18.05;77.32;100739.75;5072579;27;45579;-68
2022/06/04 03:24:50;;;;;;;;;25.67;22.00;;;;;18.08;76.69;100736.81;5074523;27;45469;-67
2022/06/04 03:27:16;;;;;;;;;29.00;26.67;;;;;18.07;77.45;100735.09;5074186;27;45261;-69
2022/06/04 03:29:41;;;;;;;;;31.67;29.33;;;;;18.07;76.88;100732.41;5073089;28;45511;-71
2022/06/04 03:32:07;;;;;;;;;31.33;28.67;;;;;18.03;76.52;100727.44;5072319;27;45615;-68
2022/06/04 03:34:32;;;;;;;;;27.00;24.67;;;;;18.08;76.74;100736.81;5074642;27;46076;-68
2022/06/04 03:36:58;;;;;;;;;28.67;25.67;;;;;18.10;76.90;100740.25;5076467;27;45433;-69
2022/06/04 03:39:23;;;;;;;;;27.00;24.33;;;;;18.11;76.71;100736.56;5079180;27;45473;-67
2022/06/04 03:41:49;;;;;;;;;27.00;24.33;;;;;18.14;76.87;100740.84;5078115;27;45614;-69
2022/06/04 03:44:14;;;;;;;;;26.67;26.67;;;;;18.13;76.98;100739.97;5077115;27;46220;-66
2022/06/04 03:46:39;;;;;;;;;23.33;23.33;;;;;18.13;76.80;100744.50;5076352;27;45534;-67
2022/06/04 03:49:05;;;;;;;;;30.33;29.33;;;;;18.10;76.58;100751.00;5090253;27;45460;-69
2022/06/04 03:51:31;;;;;;;;;28.00;26.67;;;;;18.15;76.64;100754.16;5076247;27;45313;-70
2022/06/04 03:53:57;;;;;;;;;26.67;25.67;;;;;18.10;76.64;100753.69;5077492;27;45538;-69
2022/06/04 03:56:23;;;;;;;;;22.00;20.00;;;;;18.15;76.59;100770.31;5077999;27;45223;-67
2022/06/04 03:58:49;;;;;;;;;25.00;25.00;;;;;18.15;76.53;100777.53;5078420;27;45466;-69
2022/06/04 04:01:21;;;;;;;;;29.33;25.33;;;;;18.19;76.21;100787.91;5076313;27;45593;-68
2022/06/04 04:03:46;;;;;;;;;31.33;29.33;;;;;18.21;76.40;100783.22;5078573;27;45571;-69
2022/06/04 04:06:14;;;;;;;;;27.33;27.00;;;;;18.22;76.46;100787.63;5076356;27;45426;-69
2022/06/04 04:08:40;;;;;;;;;32.33;27.33;;;;;18.24;76.20;100772.22;5090209;27;45560;-68
2022/06/04 04:11:10;;;;;;;;;27.67;26.00;;;;;18.22;76.53;100776.84;5059622;27;45782;-71
2022/06/04 04:13:36;;;;;;;;;24.67;24.67;;;;;18.24;75.96;100788.38;5078161;27;45464;-70
2022/06/04 04:16:02;;;;;;;;;25.33;25.00;;;;;18.26;76.04;100796.31;5076542;27;45440;-69
2022/06/04 04:18:27;;;;;;;;;25.67;23.33;;;;;18.25;76.19;100805.38;5078003;27;45266;-68
2022/06/04 04:20:53;;;;;;;;;28.33;27.00;;;;;18.30;75.84;100810.38;5076366;27;45589;-68
2022/06/04 04:23:19;;;;;;;;;23.67;23.33;;;;;18.27;75.75;100817.72;5076902;27;45307;-68
2022/06/04 04:25:44;;;;;;;;;27.67;26.67;;;;;18.27;75.85;100838.41;5076715;27;45460;-69
2022/06/04 04:28:10;;;;;;;;;24.67;21.33;;;;;18.31;76.13;100855.16;5076996;27;45519;-68
2022/06/04 04:30:36;;;;;;;;;27.00;25.00;;;;;18.25;75.82;100860.06;5075309;27;46271;-69
2022/06/04 04:33:03;;;;;;;;;30.67;28.33;;;;;18.32;75.71;100851.47;5077829;27;45726;-68
2022/06/04 04:35:31;;;;;;;;;25.00;24.33;;;;;18.34;75.50;100838.72;5075657;27;45455;-68
2022/06/04 04:37:57;;;;;;;;;24.33;22.00;;;;;18.33;75.66;100828.94;5075992;27;45517;-68
2022/06/04 04:40:25;;;;;;;;;25.00;24.33;;;;;18.38;75.60;100853.66;5075158;27;45396;-69
2022/06/04 04:42:51;;;;;;;;;26.33;24.67;;;;;18.38;75.70;100862.59;5077608;27;45408;-68
2022/06/04 04:45:20;;;;;;;;;25.33;25.33;;;;;18.41;75.58;100853.41;5077121;27;45370;-68
2022/06/04 04:47:47;;;;;;;;;27.00;25.33;;;;;18.40;75.63;100849.00;5076058;27;45474;-69
2022/06/04 04:50:26;;;;;;;;;25.33;23.67;;;;;18.38;75.72;100864.44;5077024;27;45524;-69
2022/06/04 04:52:52;;;;;;;;;24.33;22.00;;;;;18.39;75.73;100871.53;5056915;28;45225;-68
2022/06/04 04:55:18;;;;;;;;;21.67;21.33;;;;;18.39;75.45;100875.06;5075001;27;45862;-71
2022/06/04 04:57:43;;;;;;;;;21.67;21.67;;;;;18.39;75.53;100874.22;5074727;28;45443;-69
2022/06/04 05:00:10;;;;;;;;;28.67;26.00;;;;;18.41;75.39;100870.41;5075645;27;45388;-70
2022/06/04 05:02:36;;;;;;;;;26.67;26.67;;;;;18.42;75.20;100852.41;5074281;27;45491;-69
2022/06/04 05:05:01;;;;;;;;;25.67;22.33;;;;;18.46;75.38;100861.94;5076967;27;45386;-69
2022/06/04 05:07:27;;;;;;;;;25.67;24.67;;;;;18.49;75.12;100875.13;5073618;27;45531;-68
2022/06/04 05:09:53;;;;;;;;;28.67;27.33;;;;;18.51;74.92;100873.19;5077688;27;45303;-69
2022/06/04 05:12:18;;;;;;;;;27.33;27.33;;;;;18.56;74.93;100855.63;5074933;27;47628;-69
2022/06/04 05:14:44;;;;;;;;;28.33;26.00;;;;;18.57;74.95;100845.72;5077488;27;45191;-69
2022/06/04 05:17:09;;;;;;;;;19.00;18.67;;;;;18.64;74.75;100857.72;5086478;27;45609;-69
2022/06/04 05:19:35;;;;;;;;;30.00;26.33;;;;;18.62;74.52;100851.59;5056962;28;45717;-71
2022/06/04 05:22:01;;;;;;;;;28.33;26.00;;;;;18.65;74.55;100851.34;5069666;27;46365;-68
2022/06/04 05:24:33;;;;;;;;;27.00;25.33;;;;;18.67;74.47;100846.66;5075941;28;45323;-70
2022/06/04 05:26:59;;;;;;;;;25.00;23.33;;;;;18.73;74.38;100853.34;5076102;28;45518;-69
2022/06/04 05:29:25;;;;;;;;;27.33;25.33;;;;;18.77;74.47;100831.44;5076357;27;45554;-69
2022/06/04 05:31:54;;;;;;;;;30.33;27.67;;;;;18.76;74.60;100816.25;5075708;27;46044;-68
2022/06/04 05:34:20;;;;;;;;;29.67;27.33;;;;;18.79;74.38;100802.50;5075448;27;45400;-69
2022/06/04 05:36:46;;;;;;;;;27.00;24.33;;;;;18.79;74.11;100802.50;5075702;27;45432;-69
2022/06/04 05:39:13;;;;;;;;;28.00;27.00;;;;;18.85;74.07;100810.03;5074586;27;45647;-68
2022/06/04 05:41:40;;;;;;;;;26.33;25.33;;;;;18.90;73.96;100822.28;5075608;27;46186;-68
2022/06/04 05:44:07;;;;;;;;;31.33;28.33;;;;;18.91;73.98;100829.38;5076836;27;45294;-69
2022/06/04 05:46:32;;;;;;;;;27.00;27.00;;;;;18.89;73.87;100840.28;5075682;27;45392;-69
2022/06/04 05:48:59;;;;;;;;;28.00;25.33;;;;;18.93;73.87;100835.47;5076062;27;45649;-69
2022/06/04 05:51:28;;;;;;;;;28.33;27.00;;;;;19.03;73.68;100833.69;5074672;27;46723;-69
2022/06/04 05:53:54;;;;;;;;;28.67;27.33;;;;;19.11;73.30;100823.94;5073908;27;45291;-69
2022/06/04 05:56:28;;;;;;;;;30.67;29.67;;;;;19.23;72.66;100838.16;5075941;27;45222;-69
2022/06/04 05:58:57;;;;;;;;;27.00;23.67;;;;;19.31;72.27;100846.44;5076188;27;45218;-69
2022/06/04 06:01:24;;;;;;;;;29.00;29.00;;;;;19.34;72.20;100856.94;5076491;27;45511;-69
2022/06/04 06:03:50;;;;;;;;;28.00;26.33;;;;;19.27;72.43;100866.59;5074421;27;46106;-70
2022/06/04 06:06:22;;;;;;;;;28.33;25.67;;;;;19.26;72.32;100864.84;5071848;27;45607;-69
2022/06/04 06:08:51;;;;;;;;;25.00;24.33;;;;;19.20;72.86;100886.97;5073387;28;45472;-70
2022/06/04 06:11:19;;;;;;;;;28.00;26.33;;;;;19.09;72.74;100903.22;5075111;27;45807;-69
2022/06/04 06:13:46;;;;;;;;;23.33;22.67;;;;;19.07;73.02;100908.75;5076061;28;45443;-69
2022/06/04 06:16:32;;;;;;;;;24.00;24.00;;;;;18.96;73.74;100914.22;5073210;27;45350;-70
2022/06/04 06:18:59;;;;;;;;;22.33;22.33;;;;;18.96;72.98;100894.50;5074229;27;45631;-70
2022/06/04 06:21:29;;;;;;;;;27.33;27.33;;;;;18.95;73.31;100882.00;5075355;27;46490;-71
2022/06/04 06:23:55;;;;;;;;;25.33;23.00;;;;;18.87;74.35;100906.91;5071703;27;45525;-70
2022/06/04 06:26:25;;;;;;;;;24.00;24.00;;;;;18.82;74.32;100918.09;5072883;27;45388;-70
2022/06/04 06:28:51;;;;;;;;;26.67;26.67;;;;;18.83;73.67;100909.03;5102435;27;45662;-67
2022/06/04 06:31:22;;;;;;;;;25.00;25.00;;;;;18.86;73.72;100938.41;5071327;27;45568;-68
2022/06/04 06:33:49;;;;;;;;;29.67;27.00;;;;;18.84;73.58;100934.97;5073455;27;45740;-69
2022/06/04 06:36:16;;;;;;;;;28.00;27.00;;;;;18.92;73.45;100941.56;5074604;27;45352;-70
2022/06/04 06:38:43;;;;;;;;;27.67;24.00;;;;;18.91;73.89;100947.97;5085676;27;45428;-70
2022/06/04 06:41:09;;;;;;;;;28.67;25.67;;;;;18.91;73.74;100937.19;5084099;27;45388;-71
2022/06/04 06:43:46;;;;;;;;;25.00;22.67;;;;;18.92;74.02;100946.97;5073153;27;45496;-71
2022/06/04 06:46:15;;;;;;;;;33.33;27.33;;;;;18.88;74.38;100941.00;5072384;27;45574;-69
2022/06/04 06:48:42;;;;;;;;;26.00;24.67;;;;;18.86;73.78;100922.22;5072082;27;45349;-71
2022/06/04 06:51:17;;;;;;;;;26.67;25.00;;;;;18.80;73.66;100912.00;5078343;27;45381;-70
2022/06/04 06:53:43;;;;;;;;;25.67;25.00;;;;;18.96;74.22;100954.66;5071309;27;46178;-70
2022/06/04 06:56:18;;;;;;;;;26.33;24.33;;;;;18.95;73.63;100952.09;5072562;27;45223;-71
2022/06/04 06:58:44;;;;;;;;;25.33;24.33;;;;;18.96;74.40;100943.00;5073086;27;45475;-67
2022/06/04 07:01:11;;;;;;;;;32.00;30.33;;;;;18.93;75.89;100932.50;5071405;27;45472;-68
2022/06/04 07:03:38;;;;;;;;;26.67;26.67;;;;;18.90;75.28;100911.22;5073330;27;45577;-70
2022/06/04 07:06:05;;;;;;;;;28.33;27.00;;;;;18.90;76.31;100900.44;5075798;27;45511;-72
2022/06/04 07:08:31;;;;;;;;;41.00;34.33;;;;;18.89;75.94;100909.50;5077630;28;45701;-70
2022/06/04 07:10:56;;;;;;;;;28.67;26.33;;;;;18.90;75.59;100906.69;5094537;27;46447;-71
2022/06/04 07:13:22;;;;;;;;;30.33;28.33;;;;;18.92;76.29;100893.91;5077633;28;45503;-67
2022/06/04 07:15:49;;;;;;;;;35.00;32.00;;;;;18.92;76.61;100885.84;5077130;27;45455;-70
2022/06/04 07:18:15;;;;;;;;;28.33;28.33;;;;;18.90;76.10;100879.72;5094420;27;45574;-71
2022/06/04 07:20:42;;;;;;;;;27.67;27.00;;;;;18.95;76.81;100882.00;5076775;27;46874;-67
2022/06/04 07:23:09;;;;;;;;;30.33;28.33;;;;;19.01;76.96;100889.56;5078260;27;45258;-69
2022/06/04 07:25:35;;;;;;;;;28.33;27.00;;;;;19.03;76.33;100891.16;5079395;27;45310;-68
2022/06/04 07:28:01;;;;;;;;;25.67;25.67;;;;;19.10;77.20;100889.63;5079212;27;45448;-70
2022/06/04 07:30:27;;;;;;;;;33.00;28.00;;;;;19.17;76.89;100916.06;5075957;27;45424;-67
2022/06/04 07:32:53;;;;;;;;;31.00;29.33;;;;;19.16;77.55;100934.06;5078637;27;45453;-62
2022/06/04 07:35:19;;;;;;;;;28.67;27.67;;;;;19.04;78.68;100932.44;5076982;27;45463;-61
2022/06/04 07:37:45;;;;;;;;;32.33;27.33;;;;;19.06;77.48;100946.63;5058894;28;45220;-60
2022/06/04 07:40:11;;;;;;;;;37.00;31.33;;;;;19.12;77.59;100938.84;5066263;28;45337;-61
2022/06/04 07:42:37;;;;;;;;;29.00;29.00;;;;;19.09;77.96;100932.88;5076178;28;46087;-59
2022/06/04 07:45:03;;;;;;;;;33.33;30.00;;;;;19.06;77.05;100914.28;5077534;27;45329;-60
2022/06/04 07:47:29;;;;;;;;;33.33;29.00;;;;;19.00;78.23;100930.97;5077497;27;45583;-61
2022/06/04 07:49:55;;;;;;;;;33.67;28.33;;;;;19.04;78.64;100954.84;5078102;27;45471;-56
2022/06/04 07:52:20;;;;;;;;;35.00;33.00;;;;;19.05;78.27;100953.88;5076179;27;45369;-55
2022/06/04 07:54:46;;;;;;;;;29.33;29.33;;;;;19.12;77.82;100940.69;5078483;27;45537;-58
2022/06/04 07:57:11;;;;;;;;;39.67;34.00;;;;;19.11;77.88;100931.75;5078938;27;45626;-60
2022/06/04 07:59:37;;;;;;;;;29.67;29.67;;;;;19.11;77.91;100945.25;5076959;28;46594;-56
2022/06/04 08:02:02;;;;;;;;;33.33;31.00;;;;;19.07;78.83;100951.91;5078241;28;45451;-52
2022/06/04 08:04:28;;;;;;;;;31.33;30.67;;;;;19.07;78.49;100959.13;5111203;27;45351;-59
2022/06/04 08:06:53;;;;;;;;;31.33;29.33;;;;;19.10;78.42;100945.38;5077172;27;45641;-63
2022/06/04 08:09:19;;;;;;;;;33.33;32.00;;;;;19.10;78.17;100934.59;5076114;28;46134;-59
2022/06/04 08:11:45;;;;;;;;;36.00;33.67;;;;;19.14;78.62;100906.38;5057835;28;45232;-59
2022/06/04 08:14:16;;;;;;;;;39.67;34.67;;;;;19.22;79.29;100895.78;5057974;28;45293;-59
2022/06/04 08:16:47;;;;;;;;;36.33;33.67;;;;;19.22;79.18;100906.56;5065215;28;45562;-61
2022/06/04 08:19:14;;;;;;;;;37.67;32.67;;;;;19.23;78.97;100918.22;5077195;28;46203;-57
2022/06/04 08:21:42;;;;;;;;;33.00;31.33;;;;;19.37;78.25;100916.00;5077863;27;45973;-62
2022/06/04 08:24:10;;;;;;;;;30.67;30.67;;;;;19.41;77.65;100908.53;5075599;28;45476;-62
2022/06/04 08:26:35;;;;;;;;;34.67;31.33;;;;;19.51;77.54;100911.25;5078298;27;45616;-66
2022/06/04 08:29:01;;;;;;;;;36.67;31.00;;;;;19.58;78.22;100931.34;5093448;27;45385;-66
2022/06/04 08:31:26;;;;;;;;;34.00;31.67;;;;;19.69;77.09;100945.59;5074830;27;45643;-65
2022/06/04 08:33:52;;;;;;;;;36.67;33.67;;;;;19.88;76.55;100942.09;5077614;27;45371;-73
2022/06/04 08:36:19;;;;;;;;;30.67;27.00;;;;;20.13;75.62;100934.47;5078405;27;45141;-65
2022/06/04 08:38:45;;;;;;;;;33.67;31.33;;;;;20.55;75.83;100925.16;5077437;27;46094;-65
2022/06/04 08:41:48;;;;;;;;;37.67;31.00;;;;;21.11;73.86;100940.63;5077483;27;45450;-65
2022/06/04 08:44:20;;;;;;;;;32.67;30.67;;;;;21.73;72.76;100949.13;5076198;27;45433;-67
2022/06/04 08:47:02;;;;;;;;;31.00;29.33;;;;;22.25;67.96;100933.19;5075274;28;45595;-65
2022/06/04 08:49:37;;;;;;;;;31.00;30.00;;;;;22.66;67.62;100926.34;5076142;27;45750;-65
2022/06/04 08:52:15;;;;;;;;;27.00;27.00;;;;;23.14;67.06;100930.47;5075126;27;45439;-65
2022/06/04 08:57:52;;;;;;;;;31.67;28.33;;;;;23.96;61.45;100924.50;5075625;27;45248;-68
2022/06/04 09:00:24;;;;;;;;;31.00;29.33;;;;;24.27;61.85;100943.75;5059757;28;46480;-65
2022/06/04 09:03:14;;;;;;;;;20.67;20.67;;;;;24.58;59.36;100948.59;5066369;27;45483;-67
2022/06/04 09:06:27;;;;;;;;;27.50;27.25;;;;;24.79;60.29;100946.25;5076763;27;45522;-66
2022/06/04 09:09:06;;;;;;;;;26.33;24.67;;;;;24.98;59.97;100943.16;5037185;28;45505;-68
2022/06/04 09:11:52;;;;;;;;;28.50;28.50;;;;;25.39;59.51;100943.16;5076972;27;46150;-69
2022/06/04 09:14:34;;;;;;;;;22.50;21.25;;;;;25.78;56.85;100951.41;5083818;27;45396;-66
2022/06/04 09:17:06;;;;;;;;;28.25;26.25;;;;;25.96;55.09;100953.88;5077570;27;45227;-68
2022/06/04 09:19:38;;;;;;;;;27.25;26.25;;;;;26.17;55.57;100959.59;5077142;27;45622;-68
2022/06/04 09:22:21;;;;;;;;;27.50;22.50;;;;;26.37;54.31;100946.38;5093403;27;47386;-68
2022/06/04 09:24:46;;;;;;;;;24.50;24.50;;;;;26.55;55.46;100942.50;5074598;27;45464;-65
2022/06/04 09:27:32;;;;;;;;;25.25;24.50;;;;;26.83;53.93;100945.53;5077935;28;45376;-69
2022/06/04 09:30:09;;;;;;;;;26.75;25.00;;;;;27.08;53.31;100940.72;5066657;27;45457;-65
2022/06/04 09:32:46;;;;;;;;;23.75;22.75;;;;;27.36;53.01;100952.75;5077197;27;46518;-65
2022/06/04 09:35:17;;;;;;;;;22.75;22.75;;;;;27.55;52.03;100944.00;5076915;27;45378;-68
2022/06/04 09:37:48;;;;;;;;;27.75;25.00;;;;;27.84;51.59;100945.03;5076169;28;45499;-69
2022/06/04 09:40:24;;;;;;;;;25.50;24.00;;;;;28.01;49.75;100942.97;5075352;27;45608;-68
2022/06/04 09:42:50;;;;;;;;;22.75;22.75;;;;;28.23;50.17;100941.09;5076627;27;46075;-68
2022/06/04 09:45:27;;;;;;;;;22.80;22.40;;;;;28.39;48.00;100919.03;5075031;27;45446;-68
2022/06/04 09:47:56;;;;;;;;;24.00;24.00;;;;;28.75;49.86;100930.75;5076951;27;45482;-66
2022/06/04 09:50:30;;;;;;;;;19.80;18.40;;;;;28.96;48.04;100935.41;5075339;27;45416;-58
2022/06/04 09:53:00;;;;;;;;;24.20;18.40;;;;;29.03;47.77;100932.69;5074811;27;45386;-59
2022/06/04 09:55:26;;;;;;;;;19.60;18.40;;;;;29.30;46.27;100934.63;5074959;27;45371;-57
2022/06/04 09:58:16;;;;;;;;;23.20;19.60;;;;;29.46;46.68;100933.47;5076378;27;45365;-60
2022/06/04 10:00:57;;;;;;;;;20.20;20.00;;;;;29.60;45.28;100934.41;5077171;27;45511;-57
2022/06/04 10:03:23;;;;;;;;;16.80;16.80;;;;;29.63;45.36;100926.63;5076413;27;45230;-61
2022/06/04 10:05:51;;;;;;;;;19.50;16.50;;;;;29.70;46.19;100932.16;5076774;27;45247;-57
2022/06/04 10:08:23;;;;;;;;;15.60;13.80;;;;;29.91;45.86;100936.66;5076578;27;45325;-59
2022/06/04 10:10:49;;;;;;;;;18.20;14.40;;;;;30.08;42.78;100938.06;5068027;27;45723;-59
2022/06/04 10:16:24;;;;;;;;;17.40;16.00;;;;;30.18;43.55;100937.66;5076510;28;45270;-59
2022/06/04 10:19:04;;;;;;;;;11.40;11.40;;;;;30.24;43.08;100939.59;5076135;28;45316;-60
2022/06/04 10:21:37;;;;;;;;;13.40;12.20;;;;;30.29;41.56;100934.31;5076276;27;45503;-62
2022/06/04 10:24:22;;;;;;;;;13.80;13.20;;;;;30.22;42.67;100937.06;5074931;28;46477;-61
2022/06/04 10:27:22;;;;;;;;;15.60;15.60;;;;;29.95;41.36;100933.34;5081612;27;45376;-61
2022/06/04 10:30:09;;;;;;;;;13.20;13.20;;;;;29.61;42.17;100931.47;5073323;28;45531;-60
2022/06/04 10:33:06;;;;;;;;;10.40;10.40;;;;;29.34;43.10;100930.44;5076618;27;45312;-61
2022/06/04 10:35:55;;;;;;;;;16.00;13.80;;;;;28.98;41.30;100925.09;5074994;28;45461;-61
2022/06/04 10:38:43;;;;;;;;;10.80;10.80;;;;;28.57;42.67;100922.16;5108579;27;45421;-63
2022/06/04 10:41:47;;;;;;;;;16.60;14.60;;;;;28.29;43.47;100924.81;5074689;28;45409;-63
2022/06/04 10:44:32;;;;;;;;;11.80;11.80;;;;;28.08;44.88;100931.06;5050567;28;46430;-64
2022/06/04 10:47:27;;;;;;;;;15.60;12.60;;;;;27.86;44.65;100918.38;5054299;28;46657;-62
2022/06/04 10:50:08;;;;;;;;;12.20;12.20;;;;;27.61;45.98;100918.66;5074598;28;45333;-61
2022/06/04 10:52:45;;;;;;;;;14.00;14.00;;;;;27.41;45.26;100920.25;5076086;27;45492;-65
2022/06/04 10:55:30;;;;;;;;;13.60;12.80;;;;;27.34;45.93;100913.81;5091349;27;45513;-66
2022/06/04 10:58:23;;;;;;;;;10.60;9.60;;;;;27.21;45.75;100921.81;5074461;28;46514;-66
2022/06/04 11:01:02;;;;;;;;;13.80;12.60;;;;;27.06;45.58;100910.03;5069146;27;45431;-67
2022/06/04 11:03:45;;;;;;;;;13.00;13.00;;;;;26.81;46.47;100915.69;5074276;27;45523;-64
2022/06/04 11:06:24;;;;;;;;;13.50;13.50;;;;;26.71;46.74;100918.69;5075991;28;45325;-63
2022/06/04 11:08:59;;;;;;;;;13.00;13.00;;;;;26.67;47.32;100911.03;5075231;27;45377;-64
2022/06/04 11:11:32;;;;;;;;;8.60;8.40;;;;;26.70;46.03;100913.41;5075918;27;45322;-63
2022/06/04 11:14:17;;;;;;;;;14.00;13.20;;;;;26.64;47.34;100905.94;5076118;27;45421;-64
2022/06/04 11:16:52;;;;;;;;;13.00;12.00;;;;;26.64;46.68;100906.78;5075561;27;45420;-63
2022/06/04 11:19:24;;;;;;;;;14.25;12.50;;;;;26.51;47.04;100894.81;5072668;27;45520;-64
2022/06/04 11:22:18;;;;;;;;;13.40;12.00;;;;;26.67;47.34;100895.50;5074680;27;45412;-65
2022/06/04 11:24:51;;;;;;;;;13.20;13.20;;;;;26.83;46.57;100894.53;5074095;27;46342;-62
2022/06/04 11:27:30;;;;;;;;;14.75;14.75;;;;;26.86;46.33;100893.31;5074868;28;45615;-63
2022/06/04 11:29:56;;;;;;;;;9.40;9.40;;;;;26.93;46.30;100895.09;5056522;28;45507;-66
2022/06/04 11:32:43;;;;;;;;;11.75;11.25;;;;;26.97;45.72;100895.59;5075313;27;45425;-66
2022/06/04 11:35:42;;;;;;;;;11.80;11.80;;;;;26.90;46.31;100884.56;5072588;27;45443;-64
2022/06/04 11:38:45;;;;;;;;;26.50;24.50;;;;;26.99;45.60;100888.91;5074213;28;45293;-68
2022/06/04 11:41:39;;;;;;;;;31.25;27.75;;;;;27.16;46.38;100888.78;5074963;28;46709;-66